Time;durP1;ratioP1;P1;durP2;ratioP2;P2;SDS_P1;SDS_P2;PMS_P1;PMS_P2;Temp;Humidity;BMP_temperature;BMP_pressure;BME280_temperature;BME280_humidity;BME280_pressure;Samples;Min_cycle;Max_cycle;Signal;HPM_P1;HPM_P2
2022/02/15 00:02:06;;;;;;;12.95;7.25;;;;;;;-1.34;62.17;99053.22;5033080;28;20538;-60
2022/02/15 00:04:31;;;;;;;12.93;6.90;;;;;;;-1.29;62.32;99050.13;5033919;28;20124;-60
2022/02/15 00:06:57;;;;;;;23.90;8.65;;;;;;;-1.34;62.27;99048.00;5053855;28;20048;-62
2022/02/15 00:09:23;;;;;;;15.25;7.47;;;;;;;-1.27;62.25;99040.34;5050095;28;20064;-58
2022/02/15 00:11:49;;;;;;;15.70;7.82;;;;;;;-1.25;61.85;99046.19;5032707;28;20575;-61
2022/02/15 00:14:14;;;;;;;16.63;7.65;;;;;;;-1.27;62.19;99048.94;5034118;28;20117;-59
2022/02/15 00:16:40;;;;;;;13.55;8.18;;;;;;;-1.24;62.41;99042.59;5034111;28;20059;-61
2022/02/15 00:19:06;;;;;;;15.10;8.40;;;;;;;-1.29;62.43;99040.53;5016146;28;20076;-60
2022/02/15 00:21:32;;;;;;;14.45;8.43;;;;;;;-1.30;62.64;99054.47;5034097;28;20038;-60
2022/02/15 00:23:58;;;;;;;16.35;8.90;;;;;;;-1.34;62.60;99049.81;5037865;28;20033;-59
2022/02/15 00:26:24;;;;;;;13.73;8.30;;;;;;;-1.40;62.69;99051.28;5053394;28;20376;-60
2022/02/15 00:28:49;;;;;;;12.75;7.85;;;;;;;-1.38;62.93;99050.13;5053551;28;20043;-60
2022/02/15 00:31:15;;;;;;;15.57;8.05;;;;;;;-1.36;62.80;99044.75;5032110;28;20041;-60
2022/02/15 00:33:41;;;;;;;15.65;7.40;;;;;;;-1.42;62.70;99046.25;5033921;28;20034;-59
2022/02/15 00:36:07;;;;;;;16.75;7.80;;;;;;;-1.51;63.19;99044.66;5032511;28;20076;-60
2022/02/15 00:38:33;;;;;;;16.67;7.78;;;;;;;-1.46;63.21;99046.75;4999509;28;20411;-62
2022/02/15 00:40:58;;;;;;;14.45;7.82;;;;;;;-1.45;63.28;99050.97;5034643;28;20073;-61
2022/02/15 00:43:25;;;;;;;16.73;7.55;;;;;;;-1.47;63.33;99047.72;5033645;28;20504;-60
2022/02/15 00:45:51;;;;;;;16.42;8.10;;;;;;;-1.44;63.18;99052.59;5032331;28;20073;-60
2022/02/15 00:48:17;;;;;;;15.98;7.47;;;;;;;-1.45;62.96;99056.16;5032053;28;20045;-61
2022/02/15 00:50:43;;;;;;;15.30;7.43;;;;;;;-1.55;63.76;99061.56;5031701;28;20045;-60
2022/02/15 00:53:08;;;;;;;12.48;7.65;;;;;;;-1.56;63.47;99061.72;5053243;28;20494;-60
2022/02/15 00:55:34;;;;;;;16.15;8.40;;;;;;;-1.58;63.90;99058.50;5052095;28;20052;-60
2022/02/15 00:58:00;;;;;;;15.98;7.55;;;;;;;-1.57;63.71;99054.91;5053089;28;20528;-62
2022/02/15 01:00:25;;;;;;;14.48;7.53;;;;;;;-1.64;64.24;99052.19;5053355;28;20055;-60
2022/02/15 01:02:51;;;;;;;15.00;8.18;;;;;;;-1.62;64.10;99060.59;5052900;28;20053;-61
2022/02/15 01:05:17;;;;;;;11.80;7.70;;;;;;;-1.64;63.87;99063.38;5052849;28;20044;-60
2022/02/15 01:07:43;;;;;;;13.75;7.53;;;;;;;-1.68;63.99;99069.06;5051703;28;20041;-61
2022/02/15 01:10:09;;;;;;;16.70;8.10;;;;;;;-1.68;64.58;99063.88;5039711;28;20057;-61
2022/02/15 01:12:35;;;;;;;16.15;8.40;;;;;;;-1.70;64.51;99064.06;5031684;28;20034;-58
2022/02/15 01:15:02;;;;;;;16.60;8.20;;;;;;;-1.73;64.60;99063.56;5033155;28;20081;-59
2022/02/15 01:17:29;;;;;;;13.20;7.40;;;;;;;-1.72;64.67;99073.78;5015108;28;20503;-62
2022/02/15 01:19:54;;;;;;;16.08;7.97;;;;;;;-1.74;64.52;99074.94;5031627;28;20064;-61
2022/02/15 01:22:20;;;;;;;11.77;7.05;;;;;;;-1.84;65.22;99062.94;5032954;28;20038;-61
2022/02/15 01:24:46;;;;;;;17.90;9.07;;;;;;;-1.83;65.51;99069.75;5031625;28;20657;-59
2022/02/15 01:27:12;;;;;;;16.50;8.75;;;;;;;-1.82;65.45;99083.56;5031631;28;20145;-60
2022/02/15 01:29:37;;;;;;;15.23;8.73;;;;;;;-1.81;65.17;99073.97;5031136;28;20060;-59
2022/02/15 01:32:04;;;;;;;16.35;8.75;;;;;;;-1.86;65.56;99079.66;5031379;28;20145;-60
2022/02/15 01:34:30;;;;;;;16.73;8.70;;;;;;;-1.88;66.03;99087.63;5031231;28;20507;-61
2022/02/15 01:36:55;;;;;;;16.55;8.52;;;;;;;-1.88;65.78;99092.03;5032279;28;20136;-62
2022/02/15 01:39:25;;;;;;;18.42;8.65;;;;;;;-1.87;65.64;99093.63;5031195;28;20052;-60
2022/02/15 01:41:51;;;;;;;15.18;8.52;;;;;;;-1.86;65.63;99085.66;5031775;28;20060;-61
2022/02/15 01:44:18;;;;;;;16.15;8.25;;;;;;;-1.83;65.76;99093.13;5032450;28;20037;-60
2022/02/15 01:46:44;;;;;;;16.92;9.65;;;;;;;-1.92;66.18;99090.72;5031099;28;20554;-61
2022/02/15 01:49:10;;;;;;;14.70;8.50;;;;;;;-1.97;66.73;99091.22;5030819;28;20546;-61
2022/02/15 01:51:36;;;;;;;16.98;9.00;;;;;;;-1.99;66.31;99105.34;5014457;28;20060;-61
2022/02/15 01:54:02;;;;;;;17.90;8.48;;;;;;;-2.03;66.53;99097.03;5032292;28;20033;-60
2022/02/15 01:56:28;;;;;;;16.42;8.27;;;;;;;-2.06;66.83;99107.75;5031035;28;20048;-60
2022/02/15 01:58:57;;;;;;;17.13;8.68;;;;;;;-2.08;66.91;99109.72;4998187;28;20045;-58
2022/02/15 02:01:23;;;;;;;14.95;7.82;;;;;;;-2.08;67.24;99114.91;5030535;28;20103;-61
2022/02/15 02:04:04;;;;;;;20.52;9.20;;;;;;;-2.19;67.33;99110.84;5030712;28;20067;-61
2022/02/15 02:06:30;;;;;;;18.10;9.18;;;;;;;-2.17;67.61;99108.91;5030651;28;20045;-60
2022/02/15 02:08:59;;;;;;;17.15;9.02;;;;;;;-2.18;67.69;99109.06;5031697;28;20132;-60
2022/02/15 02:11:38;;;;;;;15.40;8.85;;;;;;;-2.22;67.76;99113.78;5016144;28;20080;-61
2022/02/15 02:14:11;;;;;;;17.10;8.68;;;;;;;-2.24;67.70;99114.91;5030701;28;20041;-60
2022/02/15 02:16:45;;;;;;;19.05;8.23;;;;;;;-2.25;68.45;99114.09;5030596;28;20502;-61
2022/02/15 02:19:16;;;;;;;18.50;9.30;;;;;;;-2.25;68.08;99119.28;5030823;28;20049;-60
2022/02/15 02:21:42;;;;;;;17.98;8.85;;;;;;;-2.23;68.31;99119.16;5030438;28;20053;-61
2022/02/15 02:24:12;;;;;;;15.83;9.13;;;;;;;-2.26;68.11;99106.47;5014695;28;20390;-60
2022/02/15 02:26:42;;;;;;;17.15;9.10;;;;;;;-2.30;68.43;99116.34;5030406;28;20295;-60
2022/02/15 02:29:10;;;;;;;21.08;9.80;;;;;;;-2.30;68.61;99111.16;5037936;28;20041;-62
2022/02/15 02:31:38;;;;;;;19.90;8.77;;;;;;;-2.33;68.75;99116.69;5050091;28;20045;-62
2022/02/15 02:34:08;;;;;;;17.92;8.25;;;;;;;-2.36;68.98;99115.22;5050475;28;20134;-60
2022/02/15 02:36:46;;;;;;;17.95;9.73;;;;;;;-2.41;69.49;99117.50;5050141;28;20514;-61
2022/02/15 02:39:13;;;;;;;16.85;9.50;;;;;;;-2.44;69.73;99117.00;5049775;28;20499;-62
2022/02/15 02:41:40;;;;;;;21.40;9.85;;;;;;;-2.44;69.86;99114.41;5050067;28;20052;-62
2022/02/15 02:44:07;;;;;;;18.02;9.20;;;;;;;-2.44;69.59;99109.19;5017308;28;20186;-59
2022/02/15 02:46:32;;;;;;;20.50;10.05;;;;;;;-2.43;69.76;99116.03;5051298;28;20128;-60
2022/02/15 02:48:59;;;;;;;16.50;8.68;;;;;;;-2.44;70.26;99115.22;5033375;28;20044;-61
2022/02/15 02:51:25;;;;;;;16.90;9.55;;;;;;;-2.49;70.36;99120.09;5033496;28;20581;-60
2022/02/15 02:53:51;;;;;;;19.42;9.75;;;;;;;-2.49;70.17;99119.28;5051869;28;20090;-62
2022/02/15 02:56:18;;;;;;;20.90;10.05;;;;;;;-2.51;70.13;99111.63;5037833;28;20044;-63
2022/02/15 02:58:44;;;;;;;18.20;9.85;;;;;;;-2.48;70.40;99120.88;5052621;28;20086;-62
2022/02/15 03:01:10;;;;;;;18.90;8.52;;;;;;;-2.48;70.37;99120.88;5034405;28;20049;-60
2022/02/15 03:03:41;;;;;;;17.38;9.25;;;;;;;-2.53;71.06;99121.34;5017570;28;20538;-61
2022/02/15 03:06:09;;;;;;;17.95;9.80;;;;;;;-2.56;70.65;99127.69;5033986;28;20045;-60
2022/02/15 03:08:36;;;;;;;20.52;9.45;;;;;;;-2.58;71.31;99124.44;5046616;28;20135;-61
2022/02/15 03:11:02;;;;;;;18.42;10.15;;;;;;;-2.57;71.55;99130.44;5054060;28;20056;-60
2022/02/15 03:13:41;;;;;;;20.13;9.65;;;;;;;-2.58;71.00;99129.63;5039245;28;20052;-60
2022/02/15 03:16:14;;;;;;;22.50;10.00;;;;;;;-2.58;71.24;99128.84;5053787;28;20056;-61
2022/02/15 03:18:41;;;;;;;18.88;10.00;;;;;;;-2.61;71.38;99132.56;5053810;28;20510;-58
2022/02/15 03:21:10;;;;;;;26.70;10.15;;;;;;;-2.65;72.16;99130.41;5053860;28;20041;-60
2022/02/15 03:23:36;;;;;;;19.17;9.93;;;;;;;-2.67;72.31;99125.41;5053709;28;20048;-61
2022/02/15 03:26:02;;;;;;;18.52;8.85;;;;;;;-2.65;71.94;99141.59;5053848;28;20090;-59
2022/02/15 03:28:30;;;;;;;19.00;9.52;;;;;;;-2.62;71.69;99133.53;5020913;28;20122;-60
2022/02/15 03:30:57;;;;;;;18.83;9.43;;;;;;;-2.81;72.24;99111.25;5053710;28;20418;-62
2022/02/15 03:33:24;;;;;;;20.92;9.57;;;;;;;-2.69;72.14;99134.31;5053276;28;20058;-62
2022/02/15 03:35:50;;;;;;;21.75;10.18;;;;;;;-2.63;72.33;99137.06;5053591;28;20045;-60
2022/02/15 03:38:16;;;;;;;19.52;10.10;;;;;;;-2.69;72.57;99136.91;5053204;28;20506;-60
2022/02/15 03:43:38;;;;;;;18.90;9.85;;;;;;;-2.62;72.55;99143.06;5024295;28;20037;-60
2022/02/15 03:46:07;;;;;;;21.85;10.70;;;;;;;-2.62;72.41;99145.66;5037270;28;20064;-59
2022/02/15 03:48:37;;;;;;;19.92;10.18;;;;;;;-2.58;72.33;99144.41;5053027;28;20068;-61
2022/02/15 03:51:03;;;;;;;23.45;9.98;;;;;;;-2.60;72.61;99143.72;5036805;28;20048;-61
2022/02/15 03:53:32;;;;;;;22.02;10.73;;;;;;;-2.60;73.00;99151.53;5036863;28;20072;-60
2022/02/15 03:55:58;;;;;;;21.00;11.15;;;;;;;-2.63;72.69;99151.84;5036665;28;20076;-61
2022/02/15 03:58:24;;;;;;;21.83;10.82;;;;;;;-2.64;72.86;99156.22;5054107;28;20518;-59
2022/02/15 04:00:51;;;;;;;19.70;9.35;;;;;;;-2.64;73.21;99143.25;5053116;28;20091;-60
2022/02/15 04:03:25;;;;;;;20.83;10.52;;;;;;;-2.65;73.23;99148.59;5037324;28;20061;-61
2022/02/15 04:05:52;;;;;;;16.90;9.82;;;;;;;-2.64;73.16;99158.00;5035197;28;20033;-61
2022/02/15 04:08:18;;;;;;;17.48;9.73;;;;;;;-2.68;73.63;99152.28;5052367;28;20064;-61
2022/02/15 04:10:45;;;;;;;18.27;10.18;;;;;;;-2.62;73.51;99159.47;5052704;28;20041;-60
2022/02/15 04:13:15;;;;;;;;;;;;;;;-2.56;73.14;99156.25;5053140;28;20074;-60
2022/02/15 04:15:43;;;;;;;21.92;10.35;;;;;;;-2.53;72.68;99157.69;5052736;28;20381;-62
2022/02/15 04:18:09;;;;;;;22.90;10.68;;;;;;;-2.61;73.26;99150.72;5052755;28;20048;-59
2022/02/15 04:20:35;;;;;;;21.20;10.38;;;;;;;-2.64;73.27;99153.63;5035976;28;20044;-59
2022/02/15 04:23:05;;;;;;;25.95;10.77;;;;;;;-2.60;73.56;99152.31;5052848;28;20043;-60
2022/02/15 04:25:30;;;;;;;21.75;10.13;;;;;;;-2.62;73.46;99140.47;5036188;28;20049;-60
2022/02/15 04:28:00;;;;;;;20.58;10.52;;;;;;;-2.59;73.19;99160.91;5020619;28;20053;-61
2022/02/15 04:30:28;;;;;;;23.02;11.10;;;;;;;-2.59;73.36;99164.34;5032527;28;20041;-61
2022/02/15 04:32:53;;;;;;;20.40;10.32;;;;;;;-2.59;73.18;99164.34;5032715;28;20141;-59
2022/02/15 04:35:19;;;;;;;22.45;10.50;;;;;;;-2.60;73.71;99170.50;5032302;28;20067;-61
2022/02/15 04:37:50;;;;;;;;;;;;;;;-2.59;73.12;99179.09;5032948;28;20045;-61
2022/02/15 04:40:17;;;;;;;20.88;10.55;;;;;;;-2.64;73.48;99174.38;4999818;28;19927;-61
2022/02/15 04:42:44;;;;;;;20.65;11.20;;;;;;;-2.62;73.59;99185.44;5015511;28;20052;-61
2022/02/15 04:45:10;;;;;;;18.73;10.05;;;;;;;-2.63;73.33;99168.22;5032291;28;20037;-61
2022/02/15 04:47:49;;;;;;;24.05;9.95;;;;;;;-2.60;73.37;99180.06;5017481;28;20049;-60
2022/02/15 04:50:17;;;;;;;20.25;10.73;;;;;;;-2.60;73.56;99185.25;5033524;28;20041;-62
2022/02/15 04:52:44;;;;;;;21.40;10.48;;;;;;;-2.56;73.39;99177.00;5032101;28;20045;-62
2022/02/15 04:55:17;;;;;;;22.88;10.25;;;;;;;-2.53;73.06;99189.66;5032211;28;20127;-61
2022/02/15 04:57:50;;;;;;;21.17;10.35;;;;;;;-2.54;72.77;99187.22;5031571;28;20086;-60
2022/02/15 05:00:16;;;;;;;24.60;10.80;;;;;;;-2.53;72.62;99194.84;5030969;28;20037;-62
2022/02/15 05:03:04;;;;;;;25.45;11.57;;;;;;;-2.48;72.91;99185.78;5051474;28;20064;-61
2022/02/15 05:05:31;;;;;;;17.83;9.90;;;;;;;-2.46;72.62;99191.63;5051686;28;20517;-61
2022/02/15 05:07:57;;;;;;;19.27;10.15;;;;;;;-2.45;72.42;99188.06;5034068;28;20049;-60
2022/02/15 05:10:24;;;;;;;21.00;10.45;;;;;;;-2.43;72.80;99186.13;5031421;28;20124;-61
2022/02/15 05:12:50;;;;;;;17.73;9.52;;;;;;;-2.45;72.56;99183.66;5031589;28;20046;-63
2022/02/15 05:15:27;;;;;;;17.95;10.10;;;;;;;-2.41;72.36;99177.22;5015035;28;20072;-63
2022/02/15 05:18:17;;;;;;;20.43;10.43;;;;;;;-2.42;72.39;99182.53;5031295;28;20049;-62
2022/02/15 05:20:50;;;;;;;21.45;9.98;;;;;;;-2.40;72.35;99184.00;5031473;28;20480;-61
2022/02/15 05:23:16;;;;;;;24.75;10.40;;;;;;;-2.35;71.78;99180.94;5015970;28;20041;-61
2022/02/15 05:25:43;;;;;;;18.88;10.02;;;;;;;-2.31;71.82;99195.22;5031244;28;20069;-61
2022/02/15 05:28:24;;;;;;;24.42;11.70;;;;;;;-2.31;72.01;99184.84;5030907;28;20623;-61
2022/02/15 05:30:50;;;;;;;22.50;11.05;;;;;;;-2.26;71.88;99195.56;5012075;28;20049;-60
2022/02/15 05:33:19;;;;;;;21.20;10.13;;;;;;;-2.22;71.57;99196.06;5030769;28;20131;-63
2022/02/15 05:35:50;;;;;;;21.70;10.43;;;;;;;-2.18;71.38;99189.56;5031368;28;20049;-62
2022/02/15 05:38:17;;;;;;;20.65;9.75;;;;;;;-2.15;71.13;99197.03;5031369;28;20081;-61
2022/02/15 05:40:46;;;;;;;17.67;9.75;;;;;;;-2.20;70.73;99200.13;5046204;28;20494;-61
2022/02/15 05:43:14;;;;;;;19.70;9.95;;;;;;;-2.16;71.03;99200.63;5048879;28;20537;-62
2022/02/15 05:45:44;;;;;;;18.23;10.10;;;;;;;-2.08;71.03;99204.03;5047293;28;20044;-60
2022/02/15 05:48:42;;;;;;;20.33;10.65;;;;;;;-2.07;70.33;99212.63;5017988;28;20091;-62
2022/02/15 05:51:25;;;;;;;18.88;9.68;;;;;;;-2.10;70.19;99205.16;5047415;28;20451;-62
2022/02/15 05:54:09;;;;;;;18.33;9.43;;;;;;;-2.01;70.27;99214.59;5030802;28;20072;-62
2022/02/15 05:56:37;;;;;;;17.48;9.52;;;;;;;-1.99;69.99;99212.66;5030590;28;20053;-61
2022/02/15 05:59:17;;;;;;;22.48;9.77;;;;;;;-1.96;69.73;99211.53;5014872;28;20037;-61
2022/02/15 06:01:55;;;;;;;22.83;9.80;;;;;;;-2.00;69.77;99213.63;4999357;28;20061;-62
2022/02/15 06:04:24;;;;;;;20.90;10.05;;;;;;;-1.97;69.51;99215.91;5008158;28;20060;-62
2022/02/15 06:06:57;;;;;;;18.45;9.63;;;;;;;-1.87;69.24;99218.34;5010625;28;20443;-61
2022/02/15 06:09:24;;;;;;;18.45;9.40;;;;;;;-1.85;69.56;99214.63;5023869;28;20053;-61
2022/02/15 06:11:52;;;;;;;19.45;9.43;;;;;;;-1.77;69.20;99218.97;5027275;28;20041;-62
2022/02/15 06:14:23;;;;;;;21.63;9.45;;;;;;;-1.72;68.70;99221.91;5026828;28;20049;-59
2022/02/15 06:16:49;;;;;;;17.42;8.90;;;;;;;-1.67;68.50;99217.06;5045370;28;20322;-61
2022/02/15 06:19:18;;;;;;;19.00;9.52;;;;;;;-1.61;68.18;99228.59;5045745;28;20041;-61
2022/02/15 06:21:44;;;;;;;18.40;9.77;;;;;;;-1.59;68.07;99226.63;5047061;28;20053;-61
2022/02/15 06:24:17;;;;;;;15.63;8.90;;;;;;;-1.64;67.92;99228.91;5029871;28;20572;-61
2022/02/15 06:26:46;;;;;;;16.67;8.55;;;;;;;-1.53;67.71;99233.78;5013445;28;20045;-62
2022/02/15 06:29:33;;;;;;;19.25;8.93;;;;;;;-1.55;67.65;99234.94;5042395;28;20045;-62
2022/02/15 06:32:12;;;;;;;18.05;9.02;;;;;;;-1.58;67.70;99236.06;5026992;28;20044;-59
2022/02/15 06:34:38;;;;;;;20.73;9.35;;;;;;;-1.56;67.62;99235.88;5012263;28;20045;-61
2022/02/15 06:37:07;;;;;;;20.27;9.10;;;;;;;-1.56;67.43;99246.28;5030196;28;20042;-61
2022/02/15 06:39:38;;;;;;;15.75;9.32;;;;;;;-1.55;67.49;99250.53;5027034;28;21187;-63
2022/02/15 06:42:07;;;;;;;16.77;8.68;;;;;;;-1.62;67.29;99243.38;5005048;28;20056;-61
2022/02/15 06:44:34;;;;;;;17.45;8.60;;;;;;;-1.50;67.42;99245.63;5035698;28;20049;-60
2022/02/15 06:47:01;;;;;;;16.67;8.60;;;;;;;-1.38;66.80;99254.75;5031847;28;20175;-61
2022/02/15 06:49:31;;;;;;;16.40;9.20;;;;;;;-1.30;66.27;99249.50;5046559;28;20561;-62
2022/02/15 06:52:32;;;;;;;16.00;9.65;;;;;;;-1.25;65.98;99244.63;4951623;28;20039;-62
2022/02/15 06:55:10;;;;;;;18.48;8.82;;;;;;;-1.21;65.84;99245.91;5027574;28;20049;-62
2022/02/15 06:57:40;;;;;;;18.02;9.35;;;;;;;-1.21;65.69;99252.91;5030618;28;20049;-60
2022/02/15 07:00:06;;;;;;;16.35;9.38;;;;;;;-1.22;65.74;99248.72;5026788;28;20449;-61
2022/02/15 07:02:36;;;;;;;19.48;9.25;;;;;;;-1.24;65.20;99250.66;5013183;28;20388;-61
2022/02/15 07:05:03;;;;;;;20.45;10.02;;;;;;;-1.15;65.59;99258.28;5026899;28;20029;-62
2022/02/15 07:07:29;;;;;;;19.40;9.30;;;;;;;-1.09;65.43;99263.78;5011219;28;20045;-63
2022/02/15 07:09:56;;;;;;;20.80;9.50;;;;;;;-1.03;64.82;99260.53;5025008;28;20446;-62
2022/02/15 07:12:42;;;;;;;17.90;8.82;;;;;;;-1.05;65.08;99268.50;5025977;28;20411;-60
2022/02/15 07:15:17;;;;;;;19.58;9.00;;;;;;;-0.95;64.59;99260.53;5012125;28;20037;-62
2022/02/15 07:17:48;;;;;;;15.77;9.55;;;;;;;-0.90;64.40;99258.25;5036612;28;20041;-61
2022/02/15 07:20:21;;;;;;;15.77;8.60;;;;;;;-0.79;64.07;99264.88;5029269;28;20180;-61
2022/02/15 07:23:07;;;;;;;16.83;8.88;;;;;;;-0.70;63.70;99267.28;5034268;28;20089;-60
2022/02/15 07:25:53;;;;;;;16.40;8.85;;;;;;;-0.68;63.44;99269.72;5014178;28;20435;-62
2022/02/15 07:28:48;;;;;;;17.70;8.95;;;;;;;-0.68;63.30;99267.09;5014397;28;20140;-62
2022/02/15 07:31:14;;;;;;;16.85;8.77;;;;;;;-0.60;63.79;99272.28;5027612;28;20148;-60
2022/02/15 07:33:42;;;;;;;16.30;9.02;;;;;;;-0.46;63.14;99273.41;5008726;28;20041;-59
2022/02/15 07:36:08;;;;;;;17.35;9.07;;;;;;;-0.41;62.78;99271.09;5011642;28;20049;-61
2022/02/15 07:38:34;;;;;;;17.85;8.52;;;;;;;-0.48;62.42;99273.53;5026964;28;20112;-60
2022/02/15 07:41:00;;;;;;;19.05;9.48;;;;;;;-0.34;62.68;99277.25;5028720;28;20029;-59
2022/02/15 07:43:26;;;;;;;16.83;9.18;;;;;;;-0.21;61.75;99275.88;5029756;28;20049;-63
2022/02/15 07:45:58;;;;;;;17.73;8.40;;;;;;;-0.27;61.83;99286.00;5021770;28;20045;-61
2022/02/15 07:48:24;;;;;;;16.67;8.45;;;;;;;-0.21;61.75;99270.66;5046702;28;20059;-62
2022/02/15 07:50:49;;;;;;;16.00;7.82;;;;;;;-0.21;61.61;99273.28;5031554;28;20048;-61
2022/02/15 07:53:15;;;;;;;15.00;8.57;;;;;;;-0.11;61.21;99279.09;5046815;28;20083;-62
2022/02/15 07:55:41;;;;;;;13.55;8.07;;;;;;;-0.12;61.15;99274.84;5049970;28;20044;-62
2022/02/15 07:58:12;;;;;;;14.52;8.85;;;;;;;-0.01;61.01;99283.09;5035847;28;20132;-61
2022/02/15 08:00:40;;;;;;;14.27;7.75;;;;;;;0.03;60.90;99280.97;4981571;28;20041;-61
2022/02/15 08:03:06;;;;;;;16.95;8.98;;;;;;;0.11;61.06;99286.13;5029837;28;20057;-62
2022/02/15 08:05:32;;;;;;;15.43;8.00;;;;;;;0.17;60.57;99276.81;5031596;28;20041;-61
2022/02/15 08:08:05;;;;;;;15.15;9.18;;;;;;;0.25;60.38;99276.75;5030709;28;20053;-61
2022/02/15 08:10:31;;;;;;;18.20;8.68;;;;;;;0.31;59.96;99280.47;5031098;28;20390;-61
2022/02/15 08:13:01;;;;;;;15.20;8.32;;;;;;;0.34;59.89;99272.28;4995797;28;20076;-63
2022/02/15 08:15:30;;;;;;;19.20;9.55;;;;;;;0.44;59.28;99281.53;5032943;28;20037;-61
2022/02/15 08:17:57;;;;;;;16.85;8.80;;;;;;;0.49;59.27;99270.53;5029838;28;20100;-61
2022/02/15 08:20:23;;;;;;;14.80;8.10;;;;;;;0.52;59.26;99274.59;5028626;28;20042;-61
2022/02/15 08:22:50;;;;;;;12.45;8.50;;;;;;;0.59;59.46;99278.97;5014455;28;20049;-63
2022/02/15 08:25:17;;;;;;;15.52;8.60;;;;;;;0.59;59.18;99278.13;5030575;28;20041;-61
2022/02/15 08:27:42;;;;;;;20.13;8.95;;;;;;;0.56;58.95;99275.88;5031851;28;20045;-61
2022/02/15 08:30:09;;;;;;;14.90;8.70;;;;;;;0.64;58.92;99266.19;5031640;28;20045;-61
2022/02/15 08:32:34;;;;;;;14.38;8.70;;;;;;;0.45;58.78;99241.41;5031321;28;20053;-61
2022/02/15 08:35:00;;;;;;;16.08;7.85;;;;;;;0.81;57.96;99277.28;5013182;28;20044;-60
2022/02/15 08:37:26;;;;;;;14.50;8.48;;;;;;;0.88;58.41;99278.22;5030088;28;20057;-60
2022/02/15 08:39:52;;;;;;;22.65;8.82;;;;;;;0.98;57.57;99274.53;5031015;28;20084;-62
2022/02/15 08:42:18;;;;;;;16.02;8.85;;;;;;;1.05;58.07;99280.66;5030535;28;20042;-64
2022/02/15 08:44:44;;;;;;;15.27;8.82;;;;;;;1.07;57.63;99281.31;5027258;28;20088;-60
2022/02/15 08:47:11;;;;;;;18.83;8.82;;;;;;;1.06;57.58;99279.66;5027902;28;20041;-61
2022/02/15 08:49:37;;;;;;;15.88;9.35;;;;;;;1.07;57.69;99283.91;5028498;28;20132;-60
2022/02/15 08:52:04;;;;;;;13.73;8.10;;;;;;;1.08;57.48;99288.94;5029418;28;20147;-60
2022/02/15 08:54:30;;;;;;;17.13;8.88;;;;;;;1.11;57.61;99287.78;5012175;28;20045;-62
2022/02/15 08:56:56;;;;;;;18.35;8.98;;;;;;;1.18;57.23;99280.88;5028626;28;20439;-62
2022/02/15 08:59:22;;;;;;;15.80;8.70;;;;;;;1.25;57.33;99273.13;5026513;28;20161;-60
2022/02/15 09:01:49;;;;;;;17.25;9.00;;;;;;;1.26;57.51;99275.53;5010236;28;20064;-61
2022/02/15 09:04:18;;;;;;;16.98;8.77;;;;;;;1.23;57.05;99285.53;5009295;28;20080;-59
2022/02/15 09:06:45;;;;;;;19.70;9.27;;;;;;;1.11;57.54;99283.34;4977994;28;20103;-60
2022/02/15 09:09:13;;;;;;;13.43;7.70;;;;;;;1.13;57.45;99283.19;5029139;28;20041;-61
2022/02/15 09:11:40;;;;;;;17.85;7.88;;;;;;;1.22;57.75;99294.38;5027459;28;20045;-60
2022/02/15 09:14:05;;;;;;;15.20;9.05;;;;;;;1.15;57.13;99281.22;5026558;28;20052;-61
2022/02/15 09:16:31;;;;;;;18.48;8.65;;;;;;;1.29;57.22;99290.84;5010528;28;20049;-60
2022/02/15 09:18:58;;;;;;;17.65;8.43;;;;;;;1.28;57.37;99288.44;5026662;28;20045;-62
2022/02/15 09:21:24;;;;;;;16.73;8.57;;;;;;;1.38;57.29;99288.16;4993728;28;20041;-61
2022/02/15 09:23:49;;;;;;;12.68;8.10;;;;;;;1.46;56.45;99283.66;5027921;28;20529;-61
2022/02/15 09:26:15;;;;;;;15.95;9.05;;;;;;;1.50;56.61;99284.94;5028319;28;20441;-61
2022/02/15 09:28:42;;;;;;;15.98;8.60;;;;;;;1.57;56.37;99292.84;5024615;28;20049;-60
2022/02/15 09:31:08;;;;;;;17.58;8.80;;;;;;;1.39;56.40;99277.53;5008565;28;20498;-59
2022/02/15 09:33:34;;;;;;;14.25;8.00;;;;;;;1.44;56.75;99288.25;4994071;28;20157;-60
2022/02/15 09:36:00;;;;;;;19.35;9.13;;;;;;;1.38;56.80;99278.50;5028558;28;20033;-62
2022/02/15 09:38:26;;;;;;;18.58;8.90;;;;;;;1.52;56.39;99282.91;5028235;28;20645;-61
2022/02/15 09:40:52;;;;;;;16.05;9.07;;;;;;;1.57;56.09;99290.22;5027360;28;20039;-60
2022/02/15 09:43:18;;;;;;;14.70;8.30;;;;;;;1.58;56.62;99284.81;5009926;28;20537;-60
2022/02/15 09:45:48;;;;;;;16.10;8.70;;;;;;;1.62;56.16;99294.91;5027725;28;20041;-61
2022/02/15 09:48:18;;;;;;;17.70;8.70;;;;;;;1.67;56.37;99295.97;5029431;28;20560;-61
2022/02/15 09:50:45;;;;;;;14.55;8.70;;;;;;;1.68;56.50;99294.19;5028849;28;20344;-59
2022/02/15 09:53:11;;;;;;;14.65;8.00;;;;;;;1.75;56.16;99298.50;5027188;28;20049;-61
2022/02/15 09:55:37;;;;;;;14.38;7.97;;;;;;;1.86;55.70;99299.03;5028959;28;20195;-59
2022/02/15 09:58:03;;;;;;;16.10;8.88;;;;;;;1.84;56.03;99293.16;5030425;28;20057;-60
2022/02/15 10:00:29;;;;;;;19.25;8.57;;;;;;;1.89;56.24;99301.28;5030102;28;20045;-63
2022/02/15 10:02:56;;;;;;;16.40;9.15;;;;;;;1.97;56.24;99304.59;5028535;28;20400;-64
2022/02/15 10:05:22;;;;;;;18.45;10.88;;;;;;;1.96;55.92;99297.72;5012248;28;20529;-64
2022/02/15 10:07:56;;;;;;;12.73;8.65;;;;;;;2.01;55.67;99299.81;5028540;28;20045;-64
2022/02/15 10:10:35;;;;;;;16.30;8.75;;;;;;;2.01;55.26;99294.59;5026235;28;20049;-64
2022/02/15 10:13:04;;;;;;;18.27;9.25;;;;;;;2.01;55.96;99295.38;5025793;28;20069;-65
2022/02/15 10:15:36;;;;;;;19.45;9.63;;;;;;;2.03;55.86;99303.88;5012241;28;20107;-65
2022/02/15 10:18:09;;;;;;;17.10;9.45;;;;;;;2.02;55.81;99306.66;5024456;28;20148;-63
2022/02/15 10:20:36;;;;;;;19.70;9.52;;;;;;;2.08;55.94;99312.94;5027880;28;20045;-65
2022/02/15 10:23:22;;;;;;;17.73;9.85;;;;;;;2.12;55.79;99306.34;5029231;28;20072;-65
2022/02/15 10:25:49;;;;;;;19.13;8.98;;;;;;;2.10;55.75;99305.75;5030347;28;20033;-64
2022/02/15 10:28:28;;;;;;;15.00;9.10;;;;;;;2.07;56.03;99311.34;5035656;28;20049;-64
2022/02/15 10:30:56;;;;;;;18.20;10.23;;;;;;;2.15;55.96;99306.00;4998765;28;20129;-63
2022/02/15 10:33:32;;;;;;;15.75;8.63;;;;;;;2.14;56.08;99313.00;5019803;28;20563;-63
2022/02/15 10:36:25;;;;;;;18.40;9.57;;;;;;;2.25;56.14;99309.13;5022281;28;20045;-62
2022/02/15 10:39:52;;;;;;;20.33;9.93;;;;;;;2.30;55.66;99298.13;4997000;28;20053;-62
2022/02/15 10:42:23;;;;;;;16.63;8.52;;;;;;;2.27;55.89;99304.53;5023602;28;20060;-61
2022/02/15 10:44:52;;;;;;;15.05;8.82;;;;;;;2.33;55.67;99309.00;5038825;28;20291;-62
2022/02/15 10:47:19;;;;;;;14.75;8.43;;;;;;;2.34;55.29;99315.84;5044731;28;20044;-64
2022/02/15 10:49:45;;;;;;;17.00;9.50;;;;;;;2.49;55.98;99315.78;5041664;28;20037;-62
2022/02/15 10:52:13;;;;;;;17.65;8.98;;;;;;;2.52;55.21;99320.66;5026759;28;20045;-64
2022/02/15 10:54:40;;;;;;;17.33;9.13;;;;;;;2.52;54.95;99309.38;5010172;28;20083;-63
2022/02/15 10:57:12;;;;;;;16.75;8.55;;;;;;;2.54;55.09;99302.16;5028156;28;20072;-64
2022/02/15 10:59:41;;;;;;;19.13;9.27;;;;;;;2.62;55.07;99312.50;5035644;28;20038;-64
2022/02/15 11:02:10;;;;;;;17.38;8.98;;;;;;;2.68;54.96;99312.56;5026283;28;20056;-62
2022/02/15 11:04:37;;;;;;;13.90;8.45;;;;;;;2.68;54.86;99317.00;5026672;28;20040;-63
2022/02/15 11:07:06;;;;;;;17.77;9.30;;;;;;;2.69;54.88;99313.38;5027191;28;20033;-63
2022/02/15 11:09:45;;;;;;;16.70;8.65;;;;;;;2.78;54.55;99319.28;5026003;28;20086;-62
2022/02/15 11:12:36;;;;;;;17.88;9.75;;;;;;;2.73;54.63;99317.22;4991922;28;20038;-63
2022/02/15 11:15:05;;;;;;;17.17;8.77;;;;;;;2.79;55.28;99310.41;5026681;28;20410;-64
2022/02/15 11:17:32;;;;;;;15.27;8.82;;;;;;;2.86;55.25;99319.16;5023208;28;20431;-63
2022/02/15 11:19:59;;;;;;;14.30;8.50;;;;;;;2.88;55.55;99319.75;5033350;28;20486;-64
2022/02/15 11:22:25;;;;;;;14.45;8.43;;;;;;;2.81;54.93;99317.09;5032334;28;20052;-61
2022/02/15 11:24:51;;;;;;;15.00;8.43;;;;;;;2.91;54.18;99312.34;5032279;28;20045;-62
2022/02/15 11:27:19;;;;;;;16.48;8.65;;;;;;;2.99;53.83;99310.59;5031367;28;20655;-62
2022/02/15 11:29:53;;;;;;;17.60;9.25;;;;;;;2.90;54.04;99309.91;5033533;28;20053;-63
2022/02/15 11:32:33;;;;;;;15.23;8.57;;;;;;;2.94;54.42;99309.34;5031043;28;20081;-63
2022/02/15 11:35:13;;;;;;;16.00;8.40;;;;;;;3.05;53.57;99301.97;4993654;28;20044;-63
2022/02/15 11:37:39;;;;;;;14.88;8.68;;;;;;;3.14;53.93;99308.69;5015075;28;20081;-64
2022/02/15 11:40:07;;;;;;;13.07;8.13;;;;;;;3.13;53.17;99307.88;5029517;28;20099;-63